Time;durP1;ratioP1;P1;durP2;ratioP2;P2;SDS_P1;SDS_P2;PMS_P1;PMS_P2;Temp;Humidity;BMP_temperature;BMP_pressure;BME280_temperature;BME280_humidity;BME280_pressure;Samples;Min_cycle;Max_cycle;Signal;HPM_P1;HPM_P2
2022/07/20 00:01:07;;;;;;;7.43;6.90;;;;;;;20.19;56.93;101687.91;5013519;28;20438;-43
2022/07/20 00:03:35;;;;;;;7.70;7.20;;;;;;;20.17;53.98;101687.34;5013204;28;20544;-44
2022/07/20 00:06:03;;;;;;;6.90;6.30;;;;;;;20.17;54.13;101676.50;5013703;28;20797;-43
2022/07/20 00:11:20;;;;;;;7.40;6.73;;;;;;;20.18;54.69;101682.75;5013155;28;20468;-43
2022/07/20 00:13:49;;;;;;;7.37;6.87;;;;;;;20.16;53.52;101680.25;5013113;28;20464;-43
2022/07/20 00:16:16;;;;;;;6.80;6.37;;;;;;;20.14;54.32;101679.69;5013688;28;20523;-42
2022/07/20 00:18:44;;;;;;;7.20;6.70;;;;;;;20.14;54.93;101674.28;5013416;28;20440;-44
2022/07/20 00:21:12;;;;;;;7.90;7.30;;;;;;;20.13;57.69;101675.31;5012868;28;20437;-45
2022/07/20 00:23:42;;;;;;;8.10;6.90;;;;;;;20.12;56.02;101678.28;5012749;28;20453;-44
2022/07/20 00:26:09;;;;;;;8.07;7.37;;;;;;;20.12;56.07;101675.56;5013286;28;20447;-45
2022/07/20 00:28:37;;;;;;;7.13;6.20;;;;;;;20.09;55.36;101671.47;5012970;28;20938;-43
2022/07/20 00:31:05;;;;;;;6.93;6.43;;;;;;;20.12;55.13;101676.41;5012894;28;20475;-42
2022/07/20 00:33:33;;;;;;;7.43;6.90;;;;;;;20.14;56.40;101676.97;5006985;28;20877;-43
2022/07/20 00:36:01;;;;;;;7.80;7.30;;;;;;;20.17;58.78;101675.69;5004691;28;20805;-47
2022/07/20 00:38:29;;;;;;;7.17;6.67;;;;;;;20.16;59.93;101668.63;5013088;28;20837;-47
2022/07/20 00:40:58;;;;;;;7.23;6.73;;;;;;;20.14;61.26;101679.69;5012763;28;20433;-44
2022/07/20 00:43:25;;;;;;;7.37;6.87;;;;;;;20.15;63.02;101683.22;5012321;28;20816;-45
2022/07/20 00:45:53;;;;;;;7.30;6.70;;;;;;;20.11;64.39;101671.19;5012907;28;20816;-44
2022/07/20 00:48:21;;;;;;;7.43;6.90;;;;;;;20.04;63.56;101667.81;5012569;28;20951;-45
2022/07/20 00:50:49;;;;;;;7.10;6.60;;;;;;;20.03;63.67;101672.41;5012659;28;20894;-44
2022/07/20 00:53:17;;;;;;;7.73;6.93;;;;;;;19.98;62.42;101666.06;5011630;28;20460;-43
2022/07/20 00:55:52;;;;;;;7.43;6.90;;;;;;;19.95;61.38;101661.09;5012635;28;20523;-42
2022/07/20 00:58:21;;;;;;;7.57;6.93;;;;;;;19.94;60.19;101663.00;5012697;28;20443;-45
2022/07/20 01:00:49;;;;;;;7.47;6.77;;;;;;;19.93;59.66;101661.31;5013207;28;20424;-43
2022/07/20 01:03:16;;;;;;;7.90;7.20;;;;;;;19.91;59.06;101659.94;5012010;28;20881;-42
2022/07/20 01:05:44;;;;;;;6.90;6.40;;;;;;;19.89;58.62;101663.69;5012603;28;20440;-44
2022/07/20 01:08:12;;;;;;;7.67;7.07;;;;;;;19.89;58.06;101654.75;5012626;28;20432;-42
2022/07/20 01:10:40;;;;;;;7.70;7.10;;;;;;;19.87;58.20;101651.44;5012174;28;20474;-42
2022/07/20 01:13:07;;;;;;;6.57;6.17;;;;;;;19.85;58.15;101653.56;5011447;28;20476;-43
2022/07/20 01:15:36;;;;;;;6.90;6.50;;;;;;;19.84;58.07;101647.31;5012123;28;20433;-42
2022/07/20 01:18:04;;;;;;;6.87;6.37;;;;;;;19.81;58.15;101652.38;5012034;28;20939;-42
2022/07/20 01:20:34;;;;;;;7.33;6.70;;;;;;;19.80;58.29;101648.84;5012201;28;20432;-42
2022/07/20 01:23:03;;;;;;;8.80;7.90;;;;;;;19.81;58.23;101650.50;5011332;28;20466;-43
2022/07/20 01:25:34;;;;;;;8.20;7.40;;;;;;;19.81;58.22;101646.97;5012000;28;20551;-43
2022/07/20 01:28:05;;;;;;;8.33;7.70;;;;;;;19.81;58.35;101645.09;5011829;28;20812;-42
2022/07/20 01:30:33;;;;;;;7.40;7.00;;;;;;;19.80;58.73;101643.44;5012132;28;20479;-43
2022/07/20 01:33:01;;;;;;;7.27;6.67;;;;;;;19.83;58.78;101639.47;5005264;28;20461;-42
2022/07/20 01:35:28;;;;;;;8.00;7.40;;;;;;;19.82;58.89;101643.22;5003749;28;20838;-44
2022/07/20 01:37:56;;;;;;;7.53;6.90;;;;;;;19.84;59.06;101646.50;5011941;28;20437;-43
2022/07/20 01:40:25;;;;;;;7.63;6.93;;;;;;;19.87;59.76;101646.03;5011957;28;20429;-42
2022/07/20 01:42:53;;;;;;;7.87;7.30;;;;;;;19.86;61.07;101636.28;5010943;28;20476;-44
2022/07/20 01:45:21;;;;;;;9.27;8.57;;;;;;;19.85;63.75;101637.34;5011854;28;20433;-44
2022/07/20 01:47:48;;;;;;;8.60;7.83;;;;;;;19.83;64.97;101634.84;5011708;28;20432;-43
2022/07/20 01:50:16;;;;;;;8.87;8.03;;;;;;;19.79;65.52;101630.16;5011460;28;20476;-43
2022/07/20 01:52:44;;;;;;;8.37;7.70;;;;;;;19.77;66.41;101637.69;5010492;28;20468;-43
2022/07/20 01:55:12;;;;;;;8.43;7.83;;;;;;;19.76;67.87;101631.44;5011480;28;20432;-44
2022/07/20 01:57:41;;;;;;;8.40;7.70;;;;;;;19.74;67.92;101630.84;5011512;28;20432;-43
2022/07/20 02:00:12;;;;;;;8.23;7.63;;;;;;;19.72;68.94;101624.03;5011330;28;20439;-42
2022/07/20 02:02:47;;;;;;;8.43;7.80;;;;;;;19.70;69.23;101628.84;5010335;28;20472;-43
2022/07/20 02:05:16;;;;;;;8.63;7.83;;;;;;;19.68;69.92;101626.38;5010995;28;20432;-44
2022/07/20 02:07:44;;;;;;;7.53;7.03;;;;;;;19.65;69.93;101624.13;5011139;28;20437;-43
2022/07/20 02:10:14;;;;;;;8.67;7.97;;;;;;;19.63;70.02;101623.56;5011500;28;20664;-46
2022/07/20 02:12:43;;;;;;;8.60;7.90;;;;;;;19.59;70.06;101624.28;5010478;28;20468;-44
2022/07/20 02:16:14;;;;;;;8.20;7.50;;;;;;;19.56;70.49;101622.03;5011340;28;20523;-42
2022/07/20 02:18:05;;;;;;;8.50;7.70;;;;;;;19.50;70.49;101615.69;4999522;28;20452;-42
2022/07/20 02:20:33;;;;;;;8.30;7.60;;;;;;;19.46;70.66;101616.38;5006733;28;20433;-47
2022/07/20 02:23:01;;;;;;;8.43;7.83;;;;;;;19.42;70.55;101615.19;5010143;28;20506;-42
2022/07/20 02:25:29;;;;;;;8.00;7.20;;;;;;;19.40;70.81;101611.91;5010917;28;20970;-42
2022/07/20 02:28:04;;;;;;;9.00;8.30;;;;;;;19.38;71.13;101614.81;5011058;28;20853;-44
2022/07/20 02:30:32;;;;;;;8.53;7.83;;;;;;;19.34;71.37;101611.75;5010934;28;20498;-42
2022/07/20 02:33:00;;;;;;;9.93;8.33;;;;;;;19.32;71.70;101610.34;5004319;28;20469;-42
2022/07/20 02:35:29;;;;;;;9.73;8.70;;;;;;;19.27;71.90;101602.06;5002698;28;20959;-42
2022/07/20 02:37:58;;;;;;;8.10;7.50;;;;;;;19.23;71.92;101603.63;5011044;28;20432;-44
2022/07/20 02:40:26;;;;;;;8.87;8.13;;;;;;;19.17;71.90;101599.97;5010805;28;20775;-42
2022/07/20 02:42:54;;;;;;;9.67;8.90;;;;;;;19.13;71.89;101604.19;5009981;28;21084;-44
2022/07/20 02:45:23;;;;;;;8.60;7.60;;;;;;;19.09;71.88;101599.47;5010710;28;21018;-44
2022/07/20 02:47:51;;;;;;;8.90;8.20;;;;;;;19.04;72.04;101604.75;5010802;28;20783;-47
2022/07/20 02:50:19;;;;;;;9.43;8.73;;;;;;;19.02;72.02;101596.06;5010812;28;20473;-43
2022/07/20 02:52:46;;;;;;;7.70;7.10;;;;;;;19.00;72.02;101604.38;5010016;28;20456;-44
2022/07/20 02:55:14;;;;;;;7.80;7.20;;;;;;;18.97;72.06;101593.19;5010732;28;20797;-41
2022/07/20 02:57:41;;;;;;;9.83;9.10;;;;;;;18.96;72.09;101600.50;5010565;28;20536;-43
2022/07/20 03:00:10;;;;;;;8.93;8.10;;;;;;;18.94;72.12;101589.06;5010903;28;20918;-44
2022/07/20 03:02:40;;;;;;;7.47;6.87;;;;;;;18.92;71.89;101593.91;5009804;28;20552;-42
2022/07/20 03:05:08;;;;;;;8.07;7.37;;;;;;;18.92;72.19;101593.91;5010740;28;20532;-42
2022/07/20 03:07:36;;;;;;;8.93;8.13;;;;;;;18.93;72.41;101590.16;5010415;28;20440;-44
2022/07/20 03:10:04;;;;;;;8.33;7.70;;;;;;;18.95;72.55;101587.22;5010363;28;20441;-43
2022/07/20 03:12:32;;;;;;;9.13;8.33;;;;;;;18.97;72.76;101593.19;5009554;28;20469;-46
2022/07/20 03:15:00;;;;;;;9.60;8.63;;;;;;;19.00;73.04;101595.44;5012113;28;20437;-42
2022/07/20 03:17:27;;;;;;;9.90;9.10;;;;;;;19.03;73.19;101592.28;5014628;28;20432;-43
2022/07/20 03:19:56;;;;;;;9.67;8.87;;;;;;;19.04;73.48;101581.25;5014434;28;20885;-44
2022/07/20 03:22:24;;;;;;;9.87;9.07;;;;;;;19.08;74.08;101577.03;5013585;28;20698;-43
2022/07/20 03:24:51;;;;;;;9.67;8.70;;;;;;;19.12;74.44;101582.78;5014111;28;20805;-45
2022/07/20 03:27:19;;;;;;;11.23;10.13;;;;;;;19.16;74.30;101578.56;5014340;28;20443;-44
2022/07/20 03:29:47;;;;;;;9.80;9.00;;;;;;;19.20;74.12;101574.34;5014180;28;20771;-45
2022/07/20 03:32:14;;;;;;;9.33;8.57;;;;;;;19.24;74.04;101576.34;5011442;28;20815;-42
2022/07/20 03:34:42;;;;;;;8.33;7.73;;;;;;;19.28;73.72;101571.28;5002602;28;20433;-44
2022/07/20 03:37:11;;;;;;;8.17;7.67;;;;;;;19.33;73.45;101582.22;5013970;28;21183;-43
2022/07/20 03:39:39;;;;;;;8.97;8.27;;;;;;;19.39;73.47;101583.16;5013960;28;20443;-42
2022/07/20 03:42:07;;;;;;;9.30;8.50;;;;;;;19.43;73.18;101574.38;5013267;28;20480;-44
2022/07/20 03:44:34;;;;;;;9.70;8.40;;;;;;;19.48;73.12;101576.38;5013827;28;20440;-43
2022/07/20 03:47:02;;;;;;;9.90;8.90;;;;;;;19.54;73.20;101578.13;5014111;28;20436;-45
2022/07/20 03:49:30;;;;;;;9.53;8.77;;;;;;;19.59;72.99;101580.97;5013713;28;20784;-46
2022/07/20 03:51:57;;;;;;;10.00;9.20;;;;;;;19.64;72.97;101576.50;5013161;28;20841;-44
2022/07/20 03:54:26;;;;;;;9.80;9.00;;;;;;;19.71;73.02;101573.69;5013698;28;20436;-44
2022/07/20 03:56:54;;;;;;;10.73;9.73;;;;;;;19.74;75.14;101579.41;5013912;28;20428;-43
2022/07/20 03:59:22;;;;;;;10.97;9.53;;;;;;;19.80;75.16;101575.78;5013638;28;20432;-45
2022/07/20 04:01:49;;;;;;;10.93;9.83;;;;;;;19.86;75.01;101585.66;5012919;28;20468;-42
2022/07/20 04:04:18;;;;;;;10.13;9.33;;;;;;;19.88;76.56;101572.72;5013261;28;20436;-44
2022/07/20 04:06:45;;;;;;;10.07;9.23;;;;;;;19.94;76.83;101587.19;5013610;28;20432;-44
2022/07/20 04:09:13;;;;;;;9.40;8.70;;;;;;;20.01;76.99;101587.06;5013623;28;20429;-50
2022/07/20 04:11:42;;;;;;;10.27;8.80;;;;;;;20.06;77.77;101581.75;5012911;28;20464;-43
2022/07/20 04:14:09;;;;;;;8.27;7.73;;;;;;;20.09;78.17;101573.97;5013529;28;20475;-42
2022/07/20 04:16:37;;;;;;;9.37;8.47;;;;;;;20.19;77.87;101585.00;5013524;28;20438;-44
2022/07/20 04:19:05;;;;;;;10.33;9.53;;;;;;;20.27;77.51;101581.97;5013229;28;20440;-42
2022/07/20 04:21:32;;;;;;;9.17;8.47;;;;;;;20.43;77.26;101572.22;5012846;28;20462;-45
2022/07/20 04:24:00;;;;;;;8.70;8.00;;;;;;;20.56;76.53;101573.84;5013124;28;20433;-43
2022/07/20 04:26:28;;;;;;;8.80;8.10;;;;;;;20.73;75.92;101566.56;5012433;28;20428;-43
2022/07/20 04:28:57;;;;;;;11.87;9.00;;;;;;;21.00;75.26;101564.88;5013146;28;20438;-43
2022/07/20 04:31:24;;;;;;;9.47;8.87;;;;;;;21.52;74.20;101574.44;5012509;28;20500;-45
2022/07/20 04:33:52;;;;;;;9.87;8.93;;;;;;;22.32;71.10;101579.34;5005359;28;20441;-43
2022/07/20 04:36:20;;;;;;;9.60;8.97;;;;;;;23.06;66.06;101568.69;5006767;28;20429;-42
2022/07/20 04:38:47;;;;;;;9.30;8.50;;;;;;;23.81;63.95;101570.34;5012951;28;20463;-47
2022/07/20 04:41:16;;;;;;;10.03;9.30;;;;;;;24.31;59.75;101567.06;5012369;28;20487;-46
2022/07/20 04:43:43;;;;;;;9.30;8.60;;;;;;;24.84;60.29;101563.13;5012687;28;20460;-45
2022/07/20 04:46:12;;;;;;;9.93;9.03;;;;;;;25.26;56.75;101559.03;5012738;28;20515;-44
2022/07/20 04:48:40;;;;;;;9.43;8.63;;;;;;;25.73;56.55;101566.06;5012832;28;20432;-44
2022/07/20 04:51:07;;;;;;;8.50;7.80;;;;;;;26.43;54.09;101565.00;5012332;28;20440;-43
2022/07/20 04:53:35;;;;;;;8.20;7.60;;;;;;;27.04;53.28;101565.41;5012528;28;20457;-48
2022/07/20 04:56:03;;;;;;;8.67;7.80;;;;;;;27.66;50.09;101566.53;5012756;28;20442;-44
2022/07/20 04:58:31;;;;;;;8.30;7.70;;;;;;;28.22;50.94;101559.28;5012717;28;20523;-45
2022/07/20 05:00:59;;;;;;;8.50;7.90;;;;;;;28.66;49.26;101558.13;5012514;28;20802;-48
2022/07/20 05:03:28;;;;;;;9.00;8.27;;;;;;;29.03;48.37;101558.91;5012107;28;20486;-45
2022/07/20 05:05:55;;;;;;;9.60;8.90;;;;;;;29.28;46.70;101557.69;5012412;28;20438;-46
2022/07/20 05:08:23;;;;;;;8.40;7.77;;;;;;;29.43;44.42;101545.59;5012814;28;20876;-50
2022/07/20 05:10:50;;;;;;;9.57;8.57;;;;;;;29.60;45.92;101546.63;5012566;28;20451;-45
2022/07/20 05:13:18;;;;;;;7.83;7.33;;;;;;;29.95;46.41;101549.84;5011379;28;20475;-47
2022/07/20 05:15:46;;;;;;;8.07;7.37;;;;;;;30.07;45.24;101553.69;5012195;28;20443;-44
2022/07/20 05:18:13;;;;;;;8.43;7.77;;;;;;;30.21;43.44;101555.59;5012358;28;20446;-48
2022/07/20 05:20:42;;;;;;;7.87;7.20;;;;;;;30.61;43.69;101550.03;5010911;28;20197;-48
2022/07/20 05:23:10;;;;;;;7.57;7.07;;;;;;;30.86;42.88;101550.53;5011277;28;20598;-45
2022/07/20 05:25:39;;;;;;;7.73;7.23;;;;;;;30.88;40.28;101553.81;5012048;28;20293;-45
2022/07/20 05:28:07;;;;;;;7.70;6.90;;;;;;;31.22;42.16;101551.28;5012221;28;20646;-45
2022/07/20 05:30:35;;;;;;;8.40;7.67;;;;;;;31.67;41.05;101554.78;5012229;28;20281;-45
2022/07/20 05:33:03;;;;;;;8.03;7.33;;;;;;;32.05;40.76;101552.38;5005499;28;20237;-44
2022/07/20 05:35:30;;;;;;;8.33;7.73;;;;;;;32.51;40.42;101544.28;5003398;28;20278;-44
2022/07/20 05:38:00;;;;;;;7.70;7.20;;;;;;;32.67;37.53;101547.41;5011027;28;20198;-44
2022/07/20 05:40:27;;;;;;;9.27;6.80;;;;;;;32.78;39.47;101548.72;5011683;28;20198;-50
2022/07/20 05:42:55;;;;;;;7.70;7.10;;;;;;;33.00;38.63;101547.72;5011116;28;20598;-44
2022/07/20 05:45:23;;;;;;;8.30;7.60;;;;;;;33.55;37.77;101543.00;5011935;28;20193;-46
2022/07/20 05:47:50;;;;;;;8.35;7.43;;;;;;;33.61;38.44;101540.91;5011573;28;20197;-44
2022/07/20 05:50:18;;;;;;;8.00;7.13;;;;;;;34.03;36.09;101536.28;5011090;28;20239;-50
2022/07/20 05:52:45;;;;;;;9.30;8.60;;;;;;;34.24;36.93;101534.38;5010739;28;20971;-49
2022/07/20 05:55:15;;;;;;;8.77;8.20;;;;;;;34.22;33.64;101545.81;5011728;28;20297;-46
2022/07/20 05:57:43;;;;;;;7.38;6.97;;;;;;;33.98;34.34;101540.06;5005092;28;20313;-44
2022/07/20 06:00:11;;;;;;;7.50;7.10;;;;;;;34.07;34.60;101540.00;4991650;28;20202;-44
2022/07/20 06:02:39;;;;;;;8.43;7.72;;;;;;;33.50;34.33;101534.91;4990666;28;20222;-48
2022/07/20 06:05:08;;;;;;;8.25;7.75;;;;;;;33.76;35.78;101537.56;4991142;28;20205;-43
2022/07/20 06:07:36;;;;;;;8.00;7.50;;;;;;;33.80;35.50;101555.13;4991361;28;20208;-44
2022/07/20 06:10:11;;;;;;;7.97;7.38;;;;;;;33.85;34.95;101541.91;4991789;28;20202;-44
2022/07/20 06:12:40;;;;;;;7.85;7.40;;;;;;;33.89;34.90;101547.59;5004575;28;20218;-44
2022/07/20 06:15:09;;;;;;;8.88;8.02;;;;;;;33.73;34.33;101550.13;5011324;28;20204;-48
2022/07/20 06:17:38;;;;;;;7.70;7.20;;;;;;;33.62;34.74;101548.88;5010886;28;20289;-47
2022/07/20 06:20:08;;;;;;;8.32;7.60;;;;;;;33.55;33.56;101531.13;5010779;28;20197;-47
2022/07/20 06:22:36;;;;;;;7.57;6.97;;;;;;;33.48;34.86;101548.25;5010400;28;20232;-44
2022/07/20 06:25:05;;;;;;;8.05;7.28;;;;;;;33.75;34.30;101547.03;5011122;28;20186;-45
2022/07/20 06:27:33;;;;;;;7.75;7.25;;;;;;;33.70;35.10;101552.72;5010639;28;20197;-46
2022/07/20 06:30:03;;;;;;;7.82;7.32;;;;;;;33.93;35.45;101549.34;5009565;28;20194;-46
2022/07/20 06:32:31;;;;;;;7.80;7.10;;;;;;;34.27;35.05;101550.31;4995212;28;20222;-46
2022/07/20 06:34:59;;;;;;;8.25;7.65;;;;;;;34.48;34.31;101542.81;4993747;28;20240;-48
2022/07/20 06:37:27;;;;;;;8.50;7.75;;;;;;;34.35;34.86;101544.72;5002720;28;20200;-45
2022/07/20 06:39:55;;;;;;;7.75;7.13;;;;;;;34.22;34.42;101536.69;5010826;28;20198;-45
2022/07/20 06:42:23;;;;;;;8.43;7.68;;;;;;;34.35;32.85;101547.47;5010088;28;20229;-43
2022/07/20 06:44:51;;;;;;;7.82;7.13;;;;;;;34.81;33.54;101545.66;5010484;28;20730;-46
2022/07/20 06:47:20;;;;;;;8.32;7.60;;;;;;;34.89;34.25;101545.56;5010835;28;20200;-47
2022/07/20 06:49:48;;;;;;;8.02;7.32;;;;;;;35.31;33.21;101548.25;5010546;28;20233;-44
2022/07/20 06:52:15;;;;;;;7.25;6.65;;;;;;;35.65;33.67;101552.63;5010284;28;20463;-46
2022/07/20 06:54:43;;;;;;;6.82;6.43;;;;;;;35.70;32.11;101546.81;5011147;28;20288;-47
2022/07/20 06:57:11;;;;;;;7.35;6.95;;;;;;;35.96;32.01;101550.84;5000226;28;20198;-45
2022/07/20 06:59:39;;;;;;;8.23;7.72;;;;;;;36.15;32.42;101546.69;4992101;28;20202;-44
2022/07/20 07:02:07;;;;;;;7.05;6.65;;;;;;;36.17;32.70;101559.09;4991470;28;20241;-45
2022/07/20 07:04:36;;;;;;;8.10;7.60;;;;;;;35.51;31.99;101562.03;4992281;28;20240;-44
2022/07/20 07:07:04;;;;;;;7.97;7.28;;;;;;;35.61;34.08;101565.53;4992269;28;20194;-50
2022/07/20 07:09:31;;;;;;;7.72;7.22;;;;;;;36.06;33.38;101563.50;4991767;28;20205;-43
2022/07/20 07:11:59;;;;;;;7.93;7.40;;;;;;;36.27;32.37;101564.16;4999886;28;20316;-50
2022/07/20 07:14:26;;;;;;;8.60;7.80;;;;;;;36.59;31.98;101554.03;5011703;28;20221;-49
2022/07/20 07:16:55;;;;;;;7.55;7.07;;;;;;;36.64;32.89;101553.78;5011793;28;20201;-46
2022/07/20 07:19:23;;;;;;;7.38;6.68;;;;;;;37.32;31.76;101550.91;5011868;28;20251;-45
2022/07/20 07:21:52;;;;;;;11.90;8.18;;;;;;;37.45;30.87;101542.16;5011138;28;20260;-46
2022/07/20 07:24:20;;;;;;;7.63;7.07;;;;;;;37.68;31.52;101539.53;5010935;28;20194;-46
2022/07/20 07:26:47;;;;;;;6.97;6.38;;;;;;;37.83;31.39;101541.50;5011342;28;20280;-43
2022/07/20 07:29:15;;;;;;;6.90;6.50;;;;;;;38.03;30.47;101539.59;5011327;28;20198;-45
2022/07/20 07:31:43;;;;;;;6.82;6.22;;;;;;;38.03;29.39;101539.59;5004176;28;20257;-46
2022/07/20 07:34:10;;;;;;;6.60;6.30;;;;;;;38.15;30.11;101531.09;4994301;28;20583;-44
2022/07/20 07:36:38;;;;;;;7.38;6.88;;;;;;;38.58;28.59;101535.66;5007790;28;20193;-44
2022/07/20 07:39:07;;;;;;;7.95;7.30;;;;;;;38.16;29.65;101541.09;5011113;28;20207;-45
2022/07/20 07:41:35;;;;;;;7.97;7.38;;;;;;;37.95;30.48;101546.97;5011275;28;20638;-44
2022/07/20 07:44:03;;;;;;;7.72;6.93;;;;;;;38.25;28.79;101544.47;5011480;28;20623;-44
2022/07/20 07:46:30;;;;;;;7.30;6.90;;;;;;;38.28;29.92;101546.53;5011706;28;20198;-44
2022/07/20 07:48:58;;;;;;;7.95;7.25;;;;;;;38.46;28.60;101542.19;5011466;28;20215;-45
2022/07/20 07:51:26;;;;;;;7.05;6.63;;;;;;;38.41;30.04;101542.44;4989341;28;20316;-45
2022/07/20 07:53:53;;;;;;;6.95;6.38;;;;;;;38.50;28.09;101537.47;4991022;28;20815;-45
2022/07/20 07:56:23;;;;;;;6.63;6.13;;;;;;;38.58;27.66;101544.00;4991800;28;20195;-46
2022/07/20 07:58:51;;;;;;;9.93;7.22;;;;;;;38.63;26.33;101543.69;4991483;28;20205;-46
2022/07/20 08:01:38;;;;;;;6.57;6.18;;;;;;;38.55;26.85;101541.97;4995046;28;20237;-46
2022/07/20 08:04:06;;;;;;;6.70;6.38;;;;;;;38.61;27.63;101537.69;4994027;28;20233;-44
2022/07/20 08:06:36;;;;;;;7.25;6.63;;;;;;;38.34;26.40;101547.88;4995620;28;20519;-46
2022/07/20 08:09:04;;;;;;;6.95;6.55;;;;;;;37.95;26.84;101538.63;4995375;28;20196;-44
2022/07/20 08:11:33;;;;;;;7.22;6.68;;;;;;;37.81;26.76;101540.25;4994532;28;20313;-44
2022/07/20 08:14:02;;;;;;;7.45;6.43;;;;;;;37.60;26.46;101533.00;4994949;28;20232;-47
2022/07/20 08:16:31;;;;;;;6.35;5.90;;;;;;;37.32;27.02;101532.25;4995506;28;20198;-47
2022/07/20 08:18:59;;;;;;;6.72;6.22;;;;;;;36.98;26.90;101541.25;4995100;28;20194;-43
2022/07/20 08:21:27;;;;;;;7.18;6.68;;;;;;;36.33;26.74;101537.75;4992008;28;20230;-44
2022/07/20 08:24:01;;;;;;;6.72;6.22;;;;;;;36.03;27.51;101539.19;4993519;28;20230;-45
2022/07/20 08:26:28;;;;;;;7.25;6.75;;;;;;;35.88;27.28;101537.09;4993867;28;20197;-50
2022/07/20 08:28:57;;;;;;;6.93;6.43;;;;;;;35.80;27.57;101540.81;4994185;28;20721;-44
2022/07/20 08:31:25;;;;;;;7.35;6.70;;;;;;;35.65;28.13;101541.50;4993819;28;20225;-48
2022/07/20 08:33:53;;;;;;;7.28;6.80;;;;;;;35.51;28.51;101530.75;4997011;28;20253;-45
2022/07/20 08:36:21;;;;;;;7.68;6.90;;;;;;;35.53;28.15;101539.50;4999948;28;20277;-43
2022/07/20 08:38:49;;;;;;;7.50;6.90;;;;;;;35.73;28.68;101535.03;4994018;28;20618;-44
2022/07/20 08:41:18;;;;;;;7.65;7.05;;;;;;;35.84;28.33;101538.97;4996711;28;20282;-45
2022/07/20 08:43:45;;;;;;;6.60;6.22;;;;;;;35.91;28.40;101540.00;5012494;28;20228;-50
2022/07/20 08:46:15;;;;;;;6.93;6.43;;;;;;;35.99;28.69;101538.28;5013241;28;20388;-44
2022/07/20 08:48:43;;;;;;;6.88;6.20;;;;;;;35.99;27.86;101535.50;5013317;28;20698;-44
2022/07/20 08:51:10;;;;;;;6.07;5.78;;;;;;;35.79;27.90;101534.47;5011487;28;20677;-45
2022/07/20 08:53:38;;;;;;;7.03;6.32;;;;;;;35.80;28.29;101530.53;4992327;28;20222;-47
2022/07/20 08:56:11;;;;;;;7.55;7.00;;;;;;;35.74;28.43;101526.38;4993277;28;20198;-44
2022/07/20 08:58:38;;;;;;;5.75;5.38;;;;;;;35.61;28.86;101521.97;4993840;28;20621;-44
2022/07/20 09:01:06;;;;;;;7.03;6.60;;;;;;;35.34;28.93;101526.19;4993595;28;20296;-45
2022/07/20 09:03:35;;;;;;;8.13;7.20;;;;;;;35.28;29.01;101516.47;4998430;28;20300;-46
2022/07/20 09:06:06;;;;;;;6.88;6.25;;;;;;;35.31;29.06;101513.03;5012612;28;20280;-45
2022/07/20 09:08:36;;;;;;;7.65;6.93;;;;;;;35.44;29.50;101525.75;5012935;28;20220;-45
2022/07/20 09:11:04;;;;;;;8.27;6.88;;;;;;;35.38;29.35;101520.78;5012305;28;20256;-47
2022/07/20 09:13:35;;;;;;;7.90;7.30;;;;;;;35.34;28.50;101508.75;5002492;28;20224;-44
2022/07/20 09:16:03;;;;;;;7.50;7.00;;;;;;;35.33;28.97;101509.91;5001929;28;20282;-47
2022/07/20 09:18:33;;;;;;;7.50;6.77;;;;;;;35.40;29.52;101508.19;5008013;28;20710;-46
2022/07/20 09:21:05;;;;;;;6.77;6.20;;;;;;;35.38;29.54;101510.50;5012339;28;20280;-44
2022/07/20 09:23:34;;;;;;;7.15;6.55;;;;;;;35.52;29.69;101508.19;5012036;28;20310;-45
2022/07/20 09:26:06;;;;;;;7.90;7.00;;;;;;;35.54;29.70;101499.53;4993403;28;20198;-45
2022/07/20 09:28:37;;;;;;;6.85;6.00;;;;;;;35.58;29.80;101503.25;4993264;28;20218;-47
2022/07/20 09:31:10;;;;;;;6.80;6.30;;;;;;;35.65;29.36;101503.47;4992905;28;20194;-48
2022/07/20 09:33:38;;;;;;;7.82;7.05;;;;;;;35.54;29.66;101505.88;5002415;28;20623;-48
2022/07/20 09:36:08;;;;;;;6.50;6.10;;;;;;;35.59;29.92;101510.41;5000633;28;20236;-44
2022/07/20 09:38:38;;;;;;;7.75;7.03;;;;;;;35.85;30.08;101513.63;4992974;28;20631;-48
2022/07/20 09:41:21;;;;;;;8.60;7.05;;;;;;;35.85;30.08;101519.19;4992785;28;20197;-44
2022/07/20 09:43:48;;;;;;;7.37;6.77;;;;;;;35.79;29.60;101514.22;4991747;28;20330;-46
2022/07/20 09:46:18;;;;;;;7.27;5.93;;;;;;;35.86;29.31;101522.78;4992292;28;20301;-44
2022/07/20 09:48:47;;;;;;;6.90;6.40;;;;;;;35.88;29.29;101531.56;5007781;28;20671;-45
2022/07/20 09:51:25;;;;;;;7.32;6.57;;;;;;;35.79;28.74;101525.31;5011996;28;20198;-47
2022/07/20 09:54:00;;;;;;;7.47;6.88;;;;;;;35.96;29.79;101517.53;5001341;28;20222;-47
2022/07/20 09:56:28;;;;;;;6.75;6.05;;;;;;;35.90;29.60;101520.94;5003874;28;20575;-46
2022/07/20 09:58:58;;;;;;;7.68;7.03;;;;;;;35.99;29.56;101521.63;4999905;28;20205;-47
2022/07/20 10:01:27;;;;;;;6.35;5.80;;;;;;;36.14;29.37;101518.16;4999884;28;20261;-44
2022/07/20 10:03:57;;;;;;;7.35;6.65;;;;;;;36.26;29.47;101523.66;5011182;28;20634;-45
2022/07/20 10:06:27;;;;;;;6.57;6.07;;;;;;;36.40;29.46;101509.38;5012743;28;20204;-44
2022/07/20 10:09:00;;;;;;;7.32;6.50;;;;;;;36.38;29.97;101508.94;5012493;28;20217;-44
2022/07/20 10:11:28;;;;;;;6.57;6.03;;;;;;;36.51;29.64;101514.13;5012206;28;20228;-44
2022/07/20 10:13:58;;;;;;;6.85;6.35;;;;;;;36.60;28.96;101511.19;5012416;28;20198;-44
2022/07/20 10:16:29;;;;;;;7.63;7.03;;;;;;;36.50;29.63;101515.25;5012600;28;20201;-47
2022/07/20 10:18:58;;;;;;;7.45;6.95;;;;;;;36.55;29.59;101519.78;5011687;28;20225;-48
2022/07/20 10:21:39;;;;;;;7.45;6.85;;;;;;;36.51;29.67;101518.84;5011886;28;20328;-48
2022/07/20 10:24:22;;;;;;;7.47;6.78;;;;;;;36.60;29.49;101505.63;5011832;28;20320;-44
2022/07/20 10:26:51;;;;;;;6.95;6.38;;;;;;;36.55;28.84;101512.25;5012395;28;20232;-46
2022/07/20 10:29:30;;;;;;;7.50;7.00;;;;;;;36.68;29.42;101506.66;5012226;28;20203;-46
2022/07/20 10:31:59;;;;;;;7.03;6.30;;;;;;;36.87;29.41;101506.78;5011171;28;20228;-44
2022/07/20 10:34:33;;;;;;;7.53;7.03;;;;;;;36.86;29.75;101510.72;4995566;28;20272;-46
2022/07/20 10:37:26;;;;;;;6.30;6.00;;;;;;;37.03;30.28;101514.03;5011635;28;20583;-44
2022/07/20 10:40:04;;;;;;;7.32;6.72;;;;;;;37.10;29.50;101518.94;5012266;28;20293;-44
2022/07/20 10:42:34;;;;;;;7.10;6.28;;;;;;;37.12;29.45;101519.41;5011329;28;20233;-47
2022/07/20 10:45:31;;;;;;;6.20;5.80;;;;;;;37.04;29.31;101514.81;5012544;28;20194;-50
2022/07/20 10:48:16;;;;;;;6.90;6.32;;;;;;;36.99;28.17;101512.28;5011788;28;20292;-46
2022/07/20 10:50:45;;;;;;;6.75;6.15;;;;;;;36.94;28.68;101520.88;5012001;28;20317;-44
2022/07/20 10:53:33;;;;;;;7.00;6.40;;;;;;;36.92;28.11;101510.09;5011228;28;20276;-44
2022/07/20 10:56:10;;;;;;;10.60;7.03;;;;;;;36.98;28.34;101513.44;5011892;28;20699;-44
2022/07/20 10:58:39;;;;;;;6.93;6.53;;;;;;;37.05;28.52;101514.47;5012203;28;20217;-49
2022/07/20 11:01:09;;;;;;;7.22;6.63;;;;;;;37.09;28.00;101515.38;5010918;28;20201;-45
2022/07/20 11:03:39;;;;;;;6.22;5.82;;;;;;;37.26;27.08;101513.41;5011738;28;20226;-44
2022/07/20 11:06:10;;;;;;;6.60;6.13;;;;;;;37.34;27.86;101515.19;5012027;28;20208;-46
2022/07/20 11:08:41;;;;;;;8.63;6.72;;;;;;;37.52;27.01;101511.72;5011959;28;20233;-44
2022/07/20 11:11:15;;;;;;;8.10;6.95;;;;;;;37.68;27.07;101503.34;5011628;28;20285;-46
2022/07/20 11:13:42;;;;;;;6.75;6.15;;;;;;;37.75;27.17;101509.09;5011621;28;20304;-50
2022/07/20 11:16:10;;;;;;;6.63;6.10;;;;;;;37.82;26.82;101505.66;5011453;28;20217;-46
2022/07/20 11:18:38;;;;;;;6.75;6.15;;;;;;;37.79;26.53;101506.38;5011212;28;20198;-48
2022/07/20 11:21:08;;;;;;;7.00;6.50;;;;;;;37.86;26.51;101509.34;4990856;28;20194;-45
2022/07/20 11:23:42;;;;;;;7.03;6.53;;;;;;;37.89;25.86;101511.38;4991707;28;20221;-47
2022/07/20 11:26:11;;;;;;;7.97;6.57;;;;;;;38.04;26.23;101508.59;4992011;28;20198;-45
2022/07/20 11:28:43;;;;;;;7.00;6.50;;;;;;;38.06;26.29;101511.81;4992068;28;20293;-47
2022/07/20 11:31:11;;;;;;;8.50;6.68;;;;;;;38.09;26.07;101510.28;4992718;28;20204;-44
2022/07/20 11:33:41;;;;;;;9.93;6.70;;;;;;;38.11;26.26;101511.53;5003232;28;20622;-45
2022/07/20 11:36:11;;;;;;;6.80;6.20;;;;;;;38.05;25.91;101504.63;5003726;28;20214;-44